Time;durP1;ratioP1;P1;durP2;ratioP2;P2;SDS_P1;SDS_P2;PMS_P1;PMS_P2;Temp;Humidity;BMP_temperature;BMP_pressure;BME280_temperature;BME280_humidity;BME280_pressure;Samples;Min_cycle;Max_cycle;Signal;HPM_P1;HPM_P2
2023/06/04 00:00:43;;;;;;;;;7.67;5.33;;;;;21.92;36.39;101228.47;4975933;28;47216;-73
2023/06/04 00:03:09;;;;;;;;;7.00;7.00;;;;;22.00;36.08;101226.41;4993967;28;45409;-75
2023/06/04 00:05:35;;;;;;;;;7.67;6.00;;;;;21.95;36.54;101236.38;4995036;28;45521;-69
2023/06/04 00:08:00;;;;;;;;;8.67;6.67;;;;;21.62;36.76;101193.13;4979843;28;45606;-74
2023/06/04 00:10:26;;;;;;;;;7.00;5.33;;;;;21.71;36.63;101212.34;4998952;28;45500;-76
2023/06/04 00:12:51;;;;;;;;;6.00;5.33;;;;;21.77;36.69;101232.56;4980651;28;45401;-74
2023/06/04 00:15:17;;;;;;;;;7.33;7.00;;;;;21.75;36.97;101229.09;4994827;28;45767;-71
2023/06/04 00:17:43;;;;;;;;;10.67;6.67;;;;;21.72;36.80;101230.06;4996530;28;45908;-73
2023/06/04 00:20:10;;;;;;;;;6.67;6.00;;;;;21.69;37.00;101222.19;4997806;28;46909;-75
2023/06/04 00:22:36;;;;;;;;;7.00;6.33;;;;;21.59;36.93;101229.66;4994579;28;45924;-76
2023/06/04 00:25:02;;;;;;;;;9.00;6.67;;;;;21.58;37.02;101233.25;4995235;28;45663;-74
2023/06/04 00:27:27;;;;;;;;;9.67;6.00;;;;;21.49;36.92;101225.56;4978544;28;45326;-77
2023/06/04 00:29:54;;;;;;;;;6.33;5.00;;;;;21.56;36.96;101236.88;4995508;28;45404;-71
2023/06/04 00:32:21;;;;;;;;;7.67;5.67;;;;;21.25;37.05;101176.66;4995089;28;45495;-77
2023/06/04 00:34:54;;;;;;;;;7.00;5.67;;;;;21.54;36.83;101228.94;4995407;28;45376;-72
2023/06/04 00:37:29;;;;;;;;;7.00;5.33;;;;;21.57;36.71;101236.84;4997627;28;45440;-73
2023/06/04 00:39:55;;;;;;;;;7.00;7.00;;;;;21.49;36.66;101222.03;4980168;28;47696;-73
2023/06/04 00:42:23;;;;;;;;;8.00;5.00;;;;;21.59;36.69;101232.34;4977429;28;45705;-71
2023/06/04 00:44:49;;;;;;;;;6.00;6.00;;;;;21.58;36.61;101238.56;4994918;28;45764;-71
2023/06/04 00:47:16;;;;;;;;;10.00;6.00;;;;;21.43;36.70;101219.56;4976977;28;45625;-72
2023/06/04 00:49:45;;;;;;;;;7.00;5.33;;;;;21.50;36.78;101218.47;4994646;28;46325;-70
2023/06/04 00:52:13;;;;;;;;;6.33;5.33;;;;;21.56;36.68;101231.56;4994253;28;45439;-75
2023/06/04 00:54:40;;;;;;;;;6.00;6.00;;;;;21.55;36.85;101236.03;4994919;28;45515;-77
2023/06/04 00:57:08;;;;;;;;;6.00;6.00;;;;;21.47;36.67;101222.09;4981689;28;45516;-76
2023/06/04 00:59:36;;;;;;;;;4.00;4.00;;;;;21.55;36.74;101237.81;4977999;28;48184;-69
2023/06/04 01:02:22;;;;;;;;;6.33;6.33;;;;;21.51;36.86;101233.53;4997634;28;45546;-71
2023/06/04 01:05:10;;;;;;;;;5.33;5.00;;;;;21.52;36.93;101243.25;4995617;28;45941;-72
2023/06/04 01:07:37;;;;;;;;;6.33;6.33;;;;;21.48;36.99;101241.63;4979739;28;45558;-72
2023/06/04 01:10:07;;;;;;;;;6.33;5.00;;;;;21.46;36.66;101244.34;4994113;28;45635;-69
2023/06/04 01:12:33;;;;;;;;;6.33;6.33;;;;;21.42;36.90;101244.50;4972911;28;45701;-72
2023/06/04 01:14:58;;;;;;;;;6.00;4.67;;;;;21.39;36.62;101246.34;4974890;28;45540;-74
2023/06/04 01:17:51;;;;;;;;;4.33;4.33;;;;;21.37;37.18;101244.63;4994649;28;45653;-75
2023/06/04 01:20:17;;;;;;;;;5.00;4.00;;;;;21.30;37.15;101238.63;4976259;28;46949;-69
2023/06/04 01:22:56;;;;;;;;;5.00;5.00;;;;;21.29;37.09;101233.38;4993808;28;45517;-69
2023/06/04 01:25:32;;;;;;;;;7.67;7.67;;;;;21.20;37.15;101228.38;4976847;28;45546;-72
2023/06/04 01:27:58;;;;;;;;;5.67;5.67;;;;;21.27;37.16;101236.09;4997866;28;45463;-68
2023/06/04 01:30:26;;;;;;;;;6.67;6.00;;;;;21.27;37.02;101237.88;4997659;28;46362;-73
2023/06/04 01:32:53;;;;;;;;;7.67;6.00;;;;;21.25;37.11;101234.41;4978783;28;45763;-71
2023/06/04 01:35:21;;;;;;;;;9.00;8.00;;;;;21.18;37.04;101231.06;4993860;28;45514;-71
2023/06/04 01:37:47;;;;;;;;;7.00;6.00;;;;;21.07;36.95;101214.56;4976341;28;45634;-69
2023/06/04 01:40:14;;;;;;;;;6.33;6.33;;;;;21.20;37.06;101233.69;4993486;28;45952;-70
2023/06/04 01:42:41;;;;;;;;;6.67;6.33;;;;;21.08;37.17;101227.84;4976563;28;45985;-70
2023/06/04 01:45:07;;;;;;;;;6.00;6.00;;;;;21.09;37.42;101239.38;4976422;28;45801;-68
2023/06/04 01:47:34;;;;;;;;;10.00;7.00;;;;;20.88;37.30;101206.34;4975861;28;45580;-74
2023/06/04 01:50:01;;;;;;;;;9.67;7.33;;;;;21.02;37.51;101229.84;4976052;28;47043;-70
2023/06/04 01:52:27;;;;;;;;;9.33;7.00;;;;;20.99;37.59;101245.94;4994044;28;45436;-76
2023/06/04 01:54:53;;;;;;;;;7.00;6.00;;;;;20.85;37.58;101220.63;4993820;28;45287;-77
2023/06/04 01:57:20;;;;;;;;;7.67;4.33;;;;;20.95;37.60;101239.81;4976977;28;45604;-74
2023/06/04 01:59:46;;;;;;;;;7.00;7.00;;;;;20.84;37.59;101226.88;4975592;28;46054;-70
2023/06/04 02:02:12;;;;;;;;;7.00;7.00;;;;;20.90;37.49;101245.31;4974440;28;45523;-77
2023/06/04 02:04:41;;;;;;;;;10.00;7.33;;;;;20.67;37.75;101211.47;4995825;28;45638;-75
2023/06/04 02:07:11;;;;;;;;;11.00;7.00;;;;;20.86;37.64;101251.66;4980752;28;45302;-71
2023/06/04 02:09:37;;;;;;;;;6.33;6.00;;;;;20.63;37.56;101214.28;4976991;28;46886;-76
2023/06/04 02:12:03;;;;;;;;;7.33;6.33;;;;;20.72;37.52;101238.81;4994802;28;45561;-71
2023/06/04 02:14:29;;;;;;;;;5.67;5.67;;;;;20.82;37.69;101259.81;4997503;28;45447;-74
2023/06/04 02:16:57;;;;;;;;;6.67;5.67;;;;;20.79;37.68;101247.47;4977025;28;45793;-76
2023/06/04 02:19:25;;;;;;;;;6.00;4.00;;;;;20.82;37.39;101252.69;4976833;28;46633;-72
2023/06/04 02:21:52;;;;;;;;;4.67;4.33;;;;;20.84;37.51;101256.16;4979339;28;45424;-73
2023/06/04 02:24:17;;;;;;;;;6.00;4.33;;;;;20.85;37.74;101257.03;4994506;28;45512;-73
2023/06/04 02:26:43;;;;;;;;;5.00;4.00;;;;;20.81;37.55;101253.63;4976627;28;45803;-73
2023/06/04 02:29:08;;;;;;;;;6.00;4.33;;;;;20.80;37.76;101251.84;4976472;28;46527;-75
2023/06/04 02:31:34;;;;;;;;;4.33;4.33;;;;;20.81;37.69;101256.28;4975761;28;45390;-72
2023/06/04 02:33:59;;;;;;;;;4.00;4.00;;;;;20.51;37.52;101215.50;4994151;28;45510;-70
2023/06/04 02:36:25;;;;;;;;;2.00;2.00;;;;;20.53;37.39;101226.97;4994710;28;45451;-74
2023/06/04 02:38:51;;;;;;;;;5.67;4.33;;;;;20.76;37.47;101260.84;4993949;28;45329;-67
2023/06/04 02:41:16;;;;;;;;;6.00;4.33;;;;;20.74;37.42;101252.06;4995006;28;45475;-75
2023/06/04 02:43:42;;;;;;;;;5.00;4.67;;;;;20.77;37.67;101256.44;4979050;28;45388;-75
2023/06/04 02:46:07;;;;;;;;;5.33;4.00;;;;;20.71;37.77;101252.16;4994186;28;45580;-75
2023/06/04 02:48:33;;;;;;;;;3.33;3.33;;;;;20.70;37.59;101253.09;4978457;28;46714;-73
2023/06/04 02:50:58;;;;;;;;;4.00;4.00;;;;;20.74;37.68;101263.59;4994884;28;45408;-73
2023/06/04 02:53:24;;;;;;;;;3.33;3.33;;;;;20.71;37.59;101255.69;4993581;28;45886;-76
2023/06/04 02:55:52;;;;;;;;;4.67;4.67;;;;;20.69;37.63;101260.19;4998655;28;45433;-72
2023/06/04 02:58:18;;;;;;;;;8.67;6.00;;;;;20.66;37.32;101257.63;4997950;28;46075;-75
2023/06/04 03:00:45;;;;;;;;;8.00;7.33;;;;;20.69;37.46;101270.84;4997594;28;45767;-72
2023/06/04 03:03:10;;;;;;;;;5.67;5.67;;;;;20.62;37.85;101257.75;4976567;28;45407;-75
2023/06/04 03:05:36;;;;;;;;;6.00;5.00;;;;;20.66;37.58;101265.59;4976031;28;45383;-76
2023/06/04 03:08:03;;;;;;;;;4.67;4.67;;;;;20.58;37.76;101249.03;4996881;28;46079;-73
2023/06/04 03:10:29;;;;;;;;;5.33;5.00;;;;;20.56;37.87;101248.19;4975716;28;45222;-74
2023/06/04 03:12:55;;;;;;;;;5.67;5.33;;;;;20.57;37.81;101252.59;4998733;28;45399;-76
2023/06/04 03:15:20;;;;;;;;;5.33;4.00;;;;;20.50;37.76;101243.00;5004783;28;45321;-76
2023/06/04 03:17:46;;;;;;;;;6.00;5.33;;;;;20.58;37.62;101272.09;5004148;28;45584;-75
2023/06/04 03:20:12;;;;;;;;;4.00;4.00;;;;;20.57;37.77;101259.69;4986114;28;45508;-77
2023/06/04 03:22:40;;;;;;;;;6.00;4.00;;;;;20.52;37.92;101257.16;5003212;28;45530;-75
2023/06/04 03:25:06;;;;;;;;;4.00;3.33;;;;;20.47;37.51;101249.31;4998308;28;45443;-76
2023/06/04 03:27:32;;;;;;;;;5.00;5.00;;;;;20.48;37.64;101250.19;5000583;28;46403;-75
2023/06/04 03:29:58;;;;;;;;;4.67;4.67;;;;;20.51;37.64;101252.75;4983888;28;45477;-76
2023/06/04 03:32:24;;;;;;;;;5.00;4.00;;;;;20.41;37.71;101243.31;4981782;28;45370;-74
2023/06/04 03:34:49;;;;;;;;;6.33;5.00;;;;;20.44;37.71;101251.22;5004076;28;45461;-74
2023/06/04 03:37:16;;;;;;;;;4.67;4.67;;;;;20.45;37.78;101259.13;5004160;28;46099;-75
2023/06/04 03:39:41;;;;;;;;;6.33;5.00;;;;;20.40;37.82;101260.19;5003193;28;45923;-77
2023/06/04 03:42:07;;;;;;;;;5.00;5.00;;;;;20.43;37.88;101265.41;4982205;28;45697;-74
2023/06/04 03:44:32;;;;;;;;;3.67;3.33;;;;;20.43;37.68;101260.09;4999804;28;45567;-72
2023/06/04 03:46:58;;;;;;;;;5.00;5.00;;;;;20.37;37.74;101255.84;5000026;28;45958;-75
2023/06/04 03:49:24;;;;;;;;;3.67;3.67;;;;;20.40;38.01;101262.84;4982192;28;45500;-71
2023/06/04 03:51:49;;;;;;;;;6.33;5.33;;;;;20.38;38.01;101262.88;5001959;28;45562;-72
2023/06/04 03:54:17;;;;;;;;;6.67;4.33;;;;;20.31;37.86;101258.66;4992348;28;45326;-69
2023/06/04 03:56:48;;;;;;;;;5.00;3.67;;;;;20.28;37.72;101262.28;5012476;28;45298;-75
2023/06/04 03:59:17;;;;;;;;;4.00;4.00;;;;;20.33;37.56;101273.69;4987283;28;45612;-74
2023/06/04 04:01:55;;;;;;;;;3.00;3.00;;;;;20.29;37.93;101274.69;4984167;28;45406;-73
2023/06/04 04:04:32;;;;;;;;;4.33;4.33;;;;;20.18;37.90;101250.19;4983057;28;46165;-75
2023/06/04 04:07:00;;;;;;;;;6.00;4.33;;;;;20.23;37.92;101271.34;4983941;28;45548;-74
2023/06/04 04:09:26;;;;;;;;;4.33;4.33;;;;;20.18;37.86;101267.94;4999982;28;45841;-75
2023/06/04 04:11:51;;;;;;;;;5.00;3.67;;;;;20.22;37.84;101270.47;4999860;28;45323;-73
2023/06/04 04:14:17;;;;;;;;;5.00;3.33;;;;;20.24;37.89;101279.28;4999326;28;45554;-75
2023/06/04 04:16:42;;;;;;;;;5.00;5.00;;;;;20.14;37.75;101261.84;4998982;28;46537;-75
2023/06/04 04:19:08;;;;;;;;;5.00;5.00;;;;;20.24;37.84;101284.59;4999063;28;45373;-72
2023/06/04 04:21:36;;;;;;;;;4.00;4.00;;;;;20.18;37.78;101274.13;4981919;28;45422;-74
2023/06/04 04:24:03;;;;;;;;;4.33;3.00;;;;;20.17;37.65;101271.50;4997457;28;45723;-75
2023/06/04 04:26:29;;;;;;;;;4.33;4.33;;;;;20.23;37.62;101285.50;4995885;28;46268;-72
2023/06/04 04:28:59;;;;;;;;;6.33;5.00;;;;;20.20;37.56;101276.75;4996792;28;45435;-75
2023/06/04 04:31:30;;;;;;;;;7.00;3.33;;;;;20.17;37.50;101268.84;4996457;28;45518;-77
2023/06/04 04:33:56;;;;;;;;;5.00;4.33;;;;;20.17;37.43;101274.16;4999138;28;45502;-74
2023/06/04 04:36:21;;;;;;;;;6.00;5.00;;;;;20.18;37.36;101267.94;4996012;28;45757;-74
2023/06/04 04:38:53;;;;;;;;;4.33;4.00;;;;;20.22;37.53;101278.47;4998229;28;45389;-74
2023/06/04 04:41:22;;;;;;;;;2.67;2.67;;;;;20.28;37.39;101288.03;4982295;28;45487;-72
2023/06/04 04:43:48;;;;;;;;;6.67;5.00;;;;;20.26;37.60;101293.41;4999991;28;45530;-72
2023/06/04 04:46:14;;;;;;;;;3.33;3.00;;;;;20.31;37.62;101290.59;4995471;28;45499;-74
2023/06/04 04:48:42;;;;;;;;;5.00;3.00;;;;;20.21;37.61;101273.16;4977911;28;45909;-72
2023/06/04 04:51:07;;;;;;;;;2.00;2.00;;;;;20.36;37.20;101298.44;4979028;28;45560;-75
2023/06/04 04:53:33;;;;;;;;;5.33;5.00;;;;;20.38;37.15;101293.94;4978037;28;45467;-71
2023/06/04 04:56:00;;;;;;;;;5.67;5.67;;;;;20.35;37.23;101284.28;4995482;28;45526;-72
2023/06/04 04:58:26;;;;;;;;;6.00;5.33;;;;;20.43;36.95;101292.00;4998807;28;45578;-72
2023/06/04 05:00:51;;;;;;;;;7.00;6.00;;;;;20.42;37.04;101287.63;4995728;28;45529;-73
2023/06/04 05:03:17;;;;;;;;;5.00;4.00;;;;;20.46;37.10;101299.94;4979355;28;45663;-72
2023/06/04 05:05:43;;;;;;;;;4.33;3.00;;;;;20.50;36.99;101296.22;4995838;28;46680;-76
2023/06/04 05:08:09;;;;;;;;;3.00;3.00;;;;;20.47;36.75;101296.34;4995688;28;45385;-73
2023/06/04 05:10:35;;;;;;;;;3.67;3.67;;;;;20.54;36.96;101298.75;4995143;28;45590;-72
2023/06/04 05:13:01;;;;;;;;;6.67;4.00;;;;;20.51;36.59;101292.66;4977279;28;45912;-73
2023/06/04 05:15:27;;;;;;;;;4.00;4.00;;;;;20.60;36.54;101299.53;4995285;28;46529;-72
2023/06/04 05:17:53;;;;;;;;;5.33;4.00;;;;;20.64;36.55;101306.50;4978582;28;45532;-74
2023/06/04 05:20:22;;;;;;;;;4.00;4.00;;;;;20.63;36.53;101302.09;4999367;28;45334;-70
2023/06/04 05:22:48;;;;;;;;;3.00;3.00;;;;;20.67;36.64;101307.28;4981625;28;45507;-73
2023/06/04 05:25:14;;;;;;;;;3.67;3.00;;;;;20.73;36.36;101303.56;4995450;28;45968;-73
2023/06/04 05:27:40;;;;;;;;;7.00;4.00;;;;;20.71;36.77;101303.59;4994834;28;46217;-74
2023/06/04 05:30:06;;;;;;;;;7.00;4.00;;;;;20.76;36.35;101303.44;4994797;28;45930;-76
2023/06/04 05:32:32;;;;;;;;;4.00;2.67;;;;;20.79;36.30;101294.53;4993486;28;45718;-71
2023/06/04 05:34:59;;;;;;;;;4.00;4.00;;;;;20.83;36.16;101297.00;4994421;28;45835;-73
2023/06/04 05:37:28;;;;;;;;;3.67;3.00;;;;;20.89;35.86;101298.63;4995071;28;45514;-75
2023/06/04 05:39:56;;;;;;;;;5.00;4.00;;;;;20.95;36.28;101299.31;4976910;28;45401;-72
2023/06/04 05:42:22;;;;;;;;;3.33;3.33;;;;;21.05;35.90;101307.88;4998895;28;45336;-71
2023/06/04 05:44:48;;;;;;;;;2.67;2.67;;;;;21.10;35.24;101318.38;4998767;28;46092;-70
2023/06/04 05:47:16;;;;;;;;;4.00;4.00;;;;;21.12;35.54;101311.19;4999149;28;45467;-77
2023/06/04 05:49:42;;;;;;;;;4.00;4.00;;;;;21.15;35.88;101316.41;4998732;28;45476;-76
2023/06/04 05:52:07;;;;;;;;;4.00;3.67;;;;;21.21;35.49;101326.00;4998954;28;45416;-74
2023/06/04 05:54:33;;;;;;;;;4.00;4.00;;;;;21.20;35.29;101319.78;4994612;28;45574;-69
2023/06/04 05:56:58;;;;;;;;;3.00;3.00;;;;;21.27;35.26;101332.00;4977521;28;45400;-72
2023/06/04 05:59:24;;;;;;;;;3.00;3.00;;;;;21.21;35.35;101329.53;4976597;28;45486;-76
2023/06/04 06:01:50;;;;;;;;;4.67;4.00;;;;;21.01;36.03;101316.88;4977432;28;45827;-74
2023/06/04 06:04:15;;;;;;;;;4.00;4.00;;;;;21.15;35.56;101322.63;4996615;28;45384;-71
2023/06/04 06:06:48;;;;;;;;;6.67;4.00;;;;;21.13;35.68;101310.28;4961755;28;45431;-77
2023/06/04 06:09:14;;;;;;;;;4.00;4.00;;;;;21.33;35.67;101336.25;4993351;28;45729;-77
2023/06/04 06:11:40;;;;;;;;;5.33;3.00;;;;;21.36;34.98;101333.50;4994652;28;45612;-76
2023/06/04 06:14:06;;;;;;;;;2.67;2.67;;;;;21.04;35.13;101266.16;4977292;28;46671;-75
2023/06/04 06:16:32;;;;;;;;;3.00;2.67;;;;;21.42;35.56;101332.44;4998571;28;45511;-73
2023/06/04 06:18:58;;;;;;;;;3.00;3.00;;;;;21.55;35.00;101347.97;4978164;28;45502;-77
2023/06/04 06:21:24;;;;;;;;;4.00;4.00;;;;;21.61;34.99;101338.88;4994292;28;45438;-75
2023/06/04 06:23:49;;;;;;;;;6.00;2.67;;;;;21.64;34.52;101336.13;4994021;28;45400;-72
2023/06/04 06:26:15;;;;;;;;;3.33;2.67;;;;;21.72;34.76;101326.06;4994051;28;45401;-71
2023/06/04 06:28:42;;;;;;;;;4.67;3.33;;;;;21.86;34.62;101341.56;4992413;28;45362;-75
2023/06/04 06:31:07;;;;;;;;;4.00;4.00;;;;;21.81;34.58;101322.19;4994338;28;45532;-75
2023/06/04 06:33:33;;;;;;;;;5.00;4.33;;;;;21.95;34.36;101343.91;4992743;28;46734;-75
2023/06/04 06:36:01;;;;;;;;;3.33;3.33;;;;;21.98;34.36;101345.59;4992699;28;45344;-75
2023/06/04 06:38:27;;;;;;;;;4.00;4.00;;;;;21.97;34.13;101338.50;4994388;28;45419;-76
2023/06/04 06:40:53;;;;;;;;;5.00;4.33;;;;;22.10;33.92;101354.97;4980548;28;45327;-74
2023/06/04 06:43:18;;;;;;;;;5.00;3.33;;;;;21.95;34.28;101329.72;4997040;28;45491;-74
2023/06/04 06:45:44;;;;;;;;;6.00;5.00;;;;;21.83;34.07;101332.78;4992879;28;45819;-75
2023/06/04 06:48:10;;;;;;;;;4.00;4.00;;;;;21.71;34.62;101340.31;4993486;28;45495;-77
2023/06/04 06:50:35;;;;;;;;;5.00;4.00;;;;;21.74;34.63;101350.88;4993646;28;45424;-75
2023/06/04 06:53:02;;;;;;;;;6.00;4.00;;;;;21.80;34.65;101352.44;4994084;28;45682;-76
2023/06/04 06:55:28;;;;;;;;;5.67;4.00;;;;;21.79;34.54;101332.06;4998436;28;45404;-74
2023/06/04 06:57:53;;;;;;;;;5.00;5.00;;;;;21.83;34.43;101351.47;4980482;28;45382;-73
2023/06/04 07:00:19;;;;;;;;;6.00;4.33;;;;;21.66;34.83;101334.25;4998352;28;45313;-72
2023/06/04 07:02:44;;;;;;;;;6.67;3.33;;;;;21.79;34.65;101348.91;4994936;28;46130;-75
2023/06/04 07:05:11;;;;;;;;;5.00;5.00;;;;;21.77;34.90;101334.75;4975424;28;45416;-75
2023/06/04 07:07:37;;;;;;;;;3.00;3.00;;;;;21.91;34.64;101344.06;4993758;28;45870;-74
2023/06/04 07:10:03;;;;;;;;;5.00;5.00;;;;;21.97;34.69;101341.16;4976291;28;45323;-74
2023/06/04 07:12:29;;;;;;;;;4.67;4.00;;;;;22.09;34.36;101346.09;4997651;28;46103;-77
2023/06/04 07:14:55;;;;;;;;;4.00;4.00;;;;;22.21;33.94;101347.47;4997896;28;45868;-75
2023/06/04 07:17:22;;;;;;;;;3.33;3.33;;;;;22.35;34.18;101344.25;4999640;28;45343;-78
2023/06/04 07:19:47;;;;;;;;;4.00;4.00;;;;;22.36;33.94;101333.53;4998465;28;45339;-75
2023/06/04 07:22:15;;;;;;;;;3.33;3.33;;;;;22.54;33.66;101344.44;5000007;28;45702;-77
2023/06/04 07:24:41;;;;;;;;;7.00;5.00;;;;;22.56;33.19;101347.94;5001315;28;45484;-77
2023/06/04 07:27:14;;;;;;;;;6.67;5.33;;;;;22.46;33.90;101350.06;5000161;28;45445;-72
2023/06/04 07:29:43;;;;;;;;;5.00;5.00;;;;;22.41;34.32;101339.56;5001289;28;45416;-73
2023/06/04 07:32:08;;;;;;;;;4.67;4.67;;;;;22.52;34.67;101346.28;4998652;28;46098;-72
2023/06/04 07:34:34;;;;;;;;;4.00;4.00;;;;;22.58;33.95;101338.94;4980169;28;45333;-72
2023/06/04 07:37:00;;;;;;;;;4.00;4.00;;;;;22.45;33.87;101337.69;4993861;28;45319;-72
2023/06/04 07:39:26;;;;;;;;;6.00;4.33;;;;;22.38;33.74;101354.84;4994117;28;45398;-76
2023/06/04 07:41:51;;;;;;;;;8.00;4.00;;;;;22.40;33.66;101343.19;4993238;28;46203;-75
2023/06/04 07:44:17;;;;;;;;;3.33;3.00;;;;;22.53;33.67;101348.91;4995616;28;45519;-71
2023/06/04 07:46:42;;;;;;;;;5.00;5.00;;;;;22.60;33.60;101338.88;4994849;28;45368;-78
2023/06/04 07:49:08;;;;;;;;;3.00;3.00;;;;;22.80;33.65;101354.09;4994021;28;45428;-75
2023/06/04 07:51:34;;;;;;;;;3.00;3.00;;;;;22.85;33.32;101345.00;4979048;28;45488;-79
2023/06/04 07:54:00;;;;;;;;;4.00;3.00;;;;;22.98;33.41;101337.41;4996037;28;45832;-72
2023/06/04 07:56:26;;;;;;;;;4.00;4.00;;;;;23.06;33.08;101345.09;4993668;28;45445;-77
2023/06/04 07:58:52;;;;;;;;;3.33;3.33;;;;;23.03;33.31;101332.72;4959950;28;45527;-76
2023/06/04 08:01:18;;;;;;;;;3.67;3.67;;;;;23.07;33.31;101323.66;4978654;28;47192;-73
2023/06/04 08:03:43;;;;;;;;;5.00;4.00;;;;;23.19;33.12;101335.66;4996868;28;45480;-76
2023/06/04 08:06:10;;;;;;;;;5.00;5.00;;;;;23.22;32.85;101331.97;4996415;28;45536;-77
2023/06/04 08:08:36;;;;;;;;;2.33;2.33;;;;;23.35;33.03;101343.03;4996609;28;45384;-78
2023/06/04 08:11:02;;;;;;;;;4.67;3.33;;;;;23.34;32.72;101326.13;4996255;28;45449;-76
2023/06/04 08:13:28;;;;;;;;;6.00;5.00;;;;;23.47;32.66;101339.88;4978803;28;45481;-77
2023/06/04 08:15:53;;;;;;;;;9.00;5.00;;;;;23.43;32.75;101327.56;4979187;28;45700;-74
2023/06/04 08:18:19;;;;;;;;;6.00;4.67;;;;;23.53;31.98;101331.56;5000080;28;46041;-71
2023/06/04 08:20:44;;;;;;;;;5.00;4.00;;;;;23.58;32.43;101329.56;4996938;28;45333;-75
2023/06/04 08:23:10;;;;;;;;;5.67;5.00;;;;;23.51;32.56;101314.72;4996692;28;45486;-76
2023/06/04 08:25:35;;;;;;;;;5.33;5.33;;;;;23.62;32.29;101324.97;4979154;28;45382;-74
2023/06/04 08:28:01;;;;;;;;;5.00;5.00;;;;;23.66;32.28;101331.94;4979042;28;45389;-75
2023/06/04 08:30:27;;;;;;;;;8.33;5.00;;;;;23.68;32.36;101333.59;4996831;28;45374;-74
2023/06/04 08:32:53;;;;;;;;;5.00;5.00;;;;;23.63;33.26;101327.56;5001987;28;45377;-80
2023/06/04 08:35:19;;;;;;;;;8.00;4.00;;;;;23.59;32.75;101333.97;5003537;28;45514;-73
2023/06/04 08:37:44;;;;;;;;;6.67;5.33;;;;;23.47;33.84;101316.66;5000924;28;45388;-73
2023/06/04 08:40:11;;;;;;;;;6.00;6.00;;;;;23.47;34.03;101315.81;5001387;28;46043;-77
2023/06/04 08:42:46;;;;;;;;;5.00;5.00;;;;;23.65;33.75;101324.81;4981015;28;45500;-74
2023/06/04 08:45:16;;;;;;;;;5.00;5.00;;;;;23.61;32.60;101334.78;4996825;28;45640;-67
2023/06/04 08:47:49;;;;;;;;;4.33;4.33;;;;;23.47;32.92;101305.09;4978529;28;45368;-74
2023/06/04 08:50:17;;;;;;;;;7.33;5.00;;;;;23.67;33.94;101331.84;4978366;28;47127;-71
2023/06/04 08:52:44;;;;;;;;;5.00;5.00;;;;;23.77;35.08;101329.66;4978394;28;45508;-75
2023/06/04 08:55:13;;;;;;;;;7.67;5.67;;;;;23.82;33.04;101324.97;4998801;28;45433;-71
2023/06/04 08:57:39;;;;;;;;;10.33;8.67;;;;;23.86;35.15;101317.69;4997332;28;45415;-76
2023/06/04 09:00:07;;;;;;;;;6.33;6.33;;;;;24.04;32.32;101329.41;4995955;28;46085;-75
2023/06/04 09:02:37;;;;;;;;;7.00;6.33;;;;;24.11;33.51;101323.69;4995917;28;45448;-73
2023/06/04 09:05:04;;;;;;;;;5.67;5.67;;;;;24.19;33.16;101323.34;4997476;28;45318;-73
2023/06/04 09:07:31;;;;;;;;;9.00;7.67;;;;;24.31;34.86;101329.94;4997548;28;45372;-72
2023/06/04 09:09:59;;;;;;;;;9.67;8.33;;;;;24.39;33.14;101330.44;4971871;28;46214;-72
2023/06/04 09:12:27;;;;;;;;;5.67;5.00;;;;;24.37;32.26;101316.28;4975116;28;45526;-71
2023/06/04 09:14:53;;;;;;;;;5.33;5.00;;;;;24.50;31.35;101319.28;4994058;28;46728;-74
2023/06/04 09:17:25;;;;;;;;;15.00;14.00;;;;;24.48;31.09;101315.78;4976803;28;45338;-70
2023/06/04 09:19:52;;;;;;;;;7.33;7.33;;;;;24.47;32.19;101320.28;4995826;28;45555;-79
2023/06/04 09:22:18;;;;;;;;;6.00;6.00;;;;;24.57;33.09;101325.22;4974718;28;45500;-78
2023/06/04 09:24:46;;;;;;;;;10.00;9.00;;;;;24.64;32.77;101326.66;4975509;28;45509;-75
2023/06/04 09:27:16;;;;;;;;;7.67;4.33;;;;;24.63;30.64;101325.81;4974279;28;45741;-81
2023/06/04 09:29:51;;;;;;;;;5.00;5.00;;;;;24.65;29.05;101318.53;4993325;28;45663;-73
2023/06/04 09:32:28;;;;;;;;;4.00;4.00;;;;;24.55;28.03;101322.59;4993841;28;45404;-75
2023/06/04 09:34:56;;;;;;;;;6.33;4.67;;;;;24.46;28.84;101307.81;4995175;28;45664;-73
2023/06/04 09:37:22;;;;;;;;;5.00;5.00;;;;;24.48;29.36;101316.66;4992584;28;45499;-70
2023/06/04 09:39:57;;;;;;;;;9.00;6.00;;;;;24.53;29.27;101319.97;4992625;28;45914;-69
2023/06/04 09:42:24;;;;;;;;;6.00;5.33;;;;;24.63;29.30;101323.13;4993334;28;45975;-72
2023/06/04 09:44:49;;;;;;;;;5.33;4.00;;;;;24.72;28.94;101327.16;4994111;28;45392;-69
2023/06/04 09:47:15;;;;;;;;;7.67;5.67;;;;;24.80;28.12;101329.50;4973378;28;45878;-70
2023/06/04 09:49:42;;;;;;;;;4.00;4.00;;;;;24.66;28.04;101328.31;4993130;28;45837;-68
2023/06/04 09:52:08;;;;;;;;;3.00;3.00;;;;;24.52;27.87;101333.47;4973954;28;45469;-71
2023/06/04 09:54:37;;;;;;;;;5.00;4.00;;;;;24.49;28.25;101336.28;4974842;28;45448;-68
2023/06/04 09:57:16;;;;;;;;;4.00;4.00;;;;;24.43;28.52;101318.66;4993690;28;45893;-74
2023/06/04 09:59:45;;;;;;;;;4.33;4.33;;;;;24.63;28.42;101330.25;4976995;28;46678;-75
2023/06/04 10:02:12;;;;;;;;;5.00;4.00;;;;;24.59;28.32;101323.34;4974078;28;45843;-75
2023/06/04 10:04:42;;;;;;;;;4.33;4.00;;;;;24.62;28.73;101321.38;4992986;28;45804;-67
2023/06/04 10:07:12;;;;;;;;;6.00;4.67;;;;;24.59;27.97;101337.59;4979117;28;45421;-76
2023/06/04 10:09:46;;;;;;;;;7.00;5.67;;;;;24.58;27.56;101326.94;4997696;28;45606;-75
2023/06/04 10:12:16;;;;;;;;;4.33;4.33;;;;;24.67;26.94;101334.53;4976322;28;46091;-75
2023/06/04 10:14:59;;;;;;;;;2.67;1.67;;;;;24.73;26.63;101335.13;4990159;28;45412;-75
2023/06/04 10:17:28;;;;;;;;;4.00;4.00;;;;;24.67;26.85;101346.13;4993014;28;45842;-78
2023/06/04 10:19:54;;;;;;;;;5.00;5.00;;;;;24.63;27.12;101340.97;4997437;28;45977;-77
2023/06/04 10:22:23;;;;;;;;;5.00;5.00;;;;;24.72;27.61;101338.72;4992343;28;45760;-75
2023/06/04 10:24:49;;;;;;;;;5.00;4.00;;;;;24.76;28.04;101326.06;4993031;28;45416;-77
2023/06/04 10:27:17;;;;;;;;;6.00;6.00;;;;;24.96;27.72;101322.41;4992212;28;45366;-76
2023/06/04 10:29:44;;;;;;;;;4.00;4.00;;;;;25.04;27.19;101330.97;4996664;28;45429;-77
2023/06/04 10:32:10;;;;;;;;;5.00;5.00;;;;;25.07;26.39;101319.22;4993837;28;45316;-73
2023/06/04 10:34:36;;;;;;;;;4.33;4.00;;;;;25.06;25.89;101317.50;4975304;28;45484;-75
2023/06/04 10:37:02;;;;;;;;;4.67;4.67;;;;;25.16;26.50;101330.34;4994078;28;45373;-77
2023/06/04 10:39:29;;;;;;;;;5.00;5.00;;;;;25.11;27.00;101294.00;4979434;28;46935;-76
2023/06/04 10:42:02;;;;;;;;;4.00;4.00;;;;;25.31;26.21;101309.97;5003952;28;45294;-78
2023/06/04 10:44:43;;;;;;;;;4.00;4.00;;;;;25.44;26.44;101328.13;5001907;28;45503;-75
2023/06/04 10:47:21;;;;;;;;;8.67;4.00;;;;;25.33;25.95;101288.47;4997690;28;45187;-77
2023/06/04 10:49:47;;;;;;;;;7.00;5.00;;;;;25.49;25.69;101308.19;4988043;28;46923;-78
2023/06/04 10:52:14;;;;;;;;;4.67;4.00;;;;;25.51;26.33;101308.13;4975036;28;45437;-77
2023/06/04 10:54:42;;;;;;;;;10.67;8.00;;;;;25.67;26.52;101317.06;4978836;28;45534;-78
2023/06/04 10:57:12;;;;;;;;;3.67;1.33;;;;;25.63;26.16;101299.44;4993400;28;45483;-75
2023/06/04 10:59:38;;;;;;;;;6.00;4.00;;;;;25.70;26.04;101302.63;4974819;28;47096;-74
2023/06/04 11:02:09;;;;;;;;;5.00;5.00;;;;;25.81;26.42;101308.31;4991885;28;45329;-70
2023/06/04 11:04:38;;;;;;;;;10.67;6.33;;;;;25.98;26.37;101323.53;4985148;28;45440;-73
2023/06/04 11:07:11;;;;;;;;;3.00;3.00;;;;;25.95;25.60;101315.66;4991715;28;45616;-71
2023/06/04 11:09:38;;;;;;;;;4.00;4.00;;;;;26.05;25.93;101310.66;4973840;28;47807;-74
2023/06/04 11:12:07;;;;;;;;;5.25;3.00;;;;;26.13;25.04;101317.38;4991886;28;45572;-77
2023/06/04 11:14:32;;;;;;;;;6.00;5.67;;;;;26.12;25.17;101312.94;4976798;28;45476;-76
2023/06/04 11:17:12;;;;;;;;;5.50;5.00;;;;;26.22;25.20;101321.38;4993457;28;45838;-76
2023/06/04 11:19:38;;;;;;;;;3.50;3.25;;;;;26.26;24.94;101319.38;4992252;28;45645;-75
2023/06/04 11:22:05;;;;;;;;;6.00;4.00;;;;;26.39;24.88;101328.50;4991812;28;45577;-75
2023/06/04 11:24:32;;;;;;;;;4.75;4.75;;;;;26.49;24.66;101324.34;4992480;28;45472;-73